sensor_id;sensor_type;location;lat;lon;timestamp;P1;durP1;ratioP1;P2;durP2;ratioP2
2644;SDS011;15377;48.540;9.268;2023-02-21T00:01:08;9.05;;;4.30;;
2644;SDS011;15377;48.540;9.268;2023-02-21T00:03:52;8.73;;;3.33;;
2644;SDS011;15377;48.540;9.268;2023-02-21T00:06:36;13.02;;;6.47;;
2644;SDS011;15377;48.540;9.268;2023-02-21T00:09:20;9.88;;;4.20;;
2644;SDS011;15377;48.540;9.268;2023-02-21T00:12:04;8.18;;;4.30;;
2644;SDS011;15377;48.540;9.268;2023-02-21T00:14:47;7.57;;;3.58;;
2644;SDS011;15377;48.540;9.268;2023-02-21T00:17:31;7.40;;;3.30;;
2644;SDS011;15377;48.540;9.268;2023-02-21T00:20:15;7.85;;;3.80;;
2644;SDS011;15377;48.540;9.268;2023-02-21T00:22:59;7.60;;;3.45;;
2644;SDS011;15377;48.540;9.268;2023-02-21T00:25:43;10.93;;;3.58;;
2644;SDS011;15377;48.540;9.268;2023-02-21T00:28:27;8.70;;;3.40;;
2644;SDS011;15377;48.540;9.268;2023-02-21T00:31:11;10.98;;;4.50;;
2644;SDS011;15377;48.540;9.268;2023-02-21T00:33:55;6.90;;;3.10;;
2644;SDS011;15377;48.540;9.268;2023-02-21T00:36:39;6.80;;;2.70;;
2644;SDS011;15377;48.540;9.268;2023-02-21T00:39:23;7.75;;;3.20;;
2644;SDS011;15377;48.540;9.268;2023-02-21T00:42:07;6.90;;;3.20;;
2644;SDS011;15377;48.540;9.268;2023-02-21T00:44:50;6.80;;;3.00;;
2644;SDS011;15377;48.540;9.268;2023-02-21T00:47:34;6.68;;;3.25;;
2644;SDS011;15377;48.540;9.268;2023-02-21T00:50:18;8.40;;;3.63;;
2644;SDS011;15377;48.540;9.268;2023-02-21T00:53:02;7.70;;;3.83;;
2644;SDS011;15377;48.540;9.268;2023-02-21T00:55:46;7.85;;;2.88;;
2644;SDS011;15377;48.540;9.268;2023-02-21T00:58:30;8.57;;;3.45;;
2644;SDS011;15377;48.540;9.268;2023-02-21T01:01:14;7.90;;;2.75;;
2644;SDS011;15377;48.540;9.268;2023-02-21T01:03:58;7.63;;;3.30;;
2644;SDS011;15377;48.540;9.268;2023-02-21T01:06:42;9.65;;;3.25;;
2644;SDS011;15377;48.540;9.268;2023-02-21T01:09:26;6.65;;;3.00;;
2644;SDS011;15377;48.540;9.268;2023-02-21T01:12:10;7.53;;;3.13;;
2644;SDS011;15377;48.540;9.268;2023-02-21T01:14:54;6.65;;;2.70;;
2644;SDS011;15377;48.540;9.268;2023-02-21T01:17:38;7.90;;;3.33;;
2644;SDS011;15377;48.540;9.268;2023-02-21T01:20:22;6.82;;;2.70;;
2644;SDS011;15377;48.540;9.268;2023-02-21T01:23:06;6.47;;;2.60;;
2644;SDS011;15377;48.540;9.268;2023-02-21T01:25:50;7.55;;;3.03;;
2644;SDS011;15377;48.540;9.268;2023-02-21T01:28:35;7.05;;;2.75;;
2644;SDS011;15377;48.540;9.268;2023-02-21T01:31:19;7.75;;;3.35;;
2644;SDS011;15377;48.540;9.268;2023-02-21T01:34:03;6.13;;;3.03;;
2644;SDS011;15377;48.540;9.268;2023-02-21T01:36:47;11.27;;;3.15;;
2644;SDS011;15377;48.540;9.268;2023-02-21T01:39:31;5.95;;;2.80;;
2644;SDS011;15377;48.540;9.268;2023-02-21T01:42:15;8.63;;;3.58;;
2644;SDS011;15377;48.540;9.268;2023-02-21T01:48:10;7.07;;;3.10;;
2644;SDS011;15377;48.540;9.268;2023-02-21T01:50:57;7.00;;;2.90;;
2644;SDS011;15377;48.540;9.268;2023-02-21T01:53:42;8.75;;;3.25;;
2644;SDS011;15377;48.540;9.268;2023-02-21T01:56:27;6.45;;;3.05;;
2644;SDS011;15377;48.540;9.268;2023-02-21T01:59:12;9.75;;;3.13;;
2644;SDS011;15377;48.540;9.268;2023-02-21T02:01:59;6.43;;;2.53;;
2644;SDS011;15377;48.540;9.268;2023-02-21T02:04:47;6.28;;;2.97;;
2644;SDS011;15377;48.540;9.268;2023-02-21T02:07:34;6.35;;;2.97;;
2644;SDS011;15377;48.540;9.268;2023-02-21T02:10:19;9.00;;;3.10;;
2644;SDS011;15377;48.540;9.268;2023-02-21T02:16:09;6.30;;;2.78;;
2644;SDS011;15377;48.540;9.268;2023-02-21T02:24:39;8.02;;;2.88;;
2644;SDS011;15377;48.540;9.268;2023-02-21T02:38:35;8.40;;;3.10;;
2644;SDS011;15377;48.540;9.268;2023-02-21T02:41:22;6.60;;;2.97;;
2644;SDS011;15377;48.540;9.268;2023-02-21T02:44:41;7.43;;;3.30;;
2644;SDS011;15377;48.540;9.268;2023-02-21T02:46:46;7.07;;;3.00;;
2644;SDS011;15377;48.540;9.268;2023-02-21T02:49:21;6.60;;;2.70;;
2644;SDS011;15377;48.540;9.268;2023-02-21T02:51:49;11.00;;;3.53;;
2644;SDS011;15377;48.540;9.268;2023-02-21T02:54:16;8.18;;;3.33;;
2644;SDS011;15377;48.540;9.268;2023-02-21T02:56:41;7.40;;;3.20;;
2644;SDS011;15377;48.540;9.268;2023-02-21T02:59:10;7.47;;;3.20;;
2644;SDS011;15377;48.540;9.268;2023-02-21T03:15:24;7.50;;;2.80;;
2644;SDS011;15377;48.540;9.268;2023-02-21T03:18:02;7.10;;;3.40;;
2644;SDS011;15377;48.540;9.268;2023-02-21T03:20:36;6.53;;;2.80;;
2644;SDS011;15377;48.540;9.268;2023-02-21T03:23:03;7.30;;;3.50;;
2644;SDS011;15377;48.540;9.268;2023-02-21T03:25:30;7.78;;;3.25;;
2644;SDS011;15377;48.540;9.268;2023-02-21T03:27:57;8.65;;;3.20;;
2644;SDS011;15377;48.540;9.268;2023-02-21T03:30:24;8.25;;;3.55;;
2644;SDS011;15377;48.540;9.268;2023-02-21T03:32:51;9.80;;;3.53;;
2644;SDS011;15377;48.540;9.268;2023-02-21T03:35:18;6.47;;;3.15;;
2644;SDS011;15377;48.540;9.268;2023-02-21T03:37:45;6.30;;;2.92;;
2644;SDS011;15377;48.540;9.268;2023-02-21T03:42:42;7.78;;;3.25;;
2644;SDS011;15377;48.540;9.268;2023-02-21T03:45:07;7.90;;;3.23;;
2644;SDS011;15377;48.540;9.268;2023-02-21T03:47:33;11.87;;;3.57;;
2644;SDS011;15377;48.540;9.268;2023-02-21T03:49:58;10.77;;;2.83;;
2644;SDS011;15377;48.540;9.268;2023-02-21T03:52:23;6.90;;;3.20;;
2644;SDS011;15377;48.540;9.268;2023-02-21T03:54:49;6.63;;;3.30;;
2644;SDS011;15377;48.540;9.268;2023-02-21T03:57:14;6.43;;;2.57;;
2644;SDS011;15377;48.540;9.268;2023-02-21T03:59:39;6.87;;;3.10;;
2644;SDS011;15377;48.540;9.268;2023-02-21T04:02:05;7.80;;;2.93;;
2644;SDS011;15377;48.540;9.268;2023-02-21T04:04:30;9.13;;;5.50;;
2644;SDS011;15377;48.540;9.268;2023-02-21T04:06:56;7.07;;;3.10;;
2644;SDS011;15377;48.540;9.268;2023-02-21T04:09:21;7.37;;;3.63;;
2644;SDS011;15377;48.540;9.268;2023-02-21T04:11:47;9.13;;;4.00;;
2644;SDS011;15377;48.540;9.268;2023-02-21T04:14:12;7.90;;;3.13;;
2644;SDS011;15377;48.540;9.268;2023-02-21T04:16:38;7.50;;;3.37;;
2644;SDS011;15377;48.540;9.268;2023-02-21T04:19:03;6.90;;;3.53;;
2644;SDS011;15377;48.540;9.268;2023-02-21T04:21:29;7.47;;;3.33;;
2644;SDS011;15377;48.540;9.268;2023-02-21T04:23:54;6.27;;;3.10;;
2644;SDS011;15377;48.540;9.268;2023-02-21T04:26:20;8.17;;;3.03;;
2644;SDS011;15377;48.540;9.268;2023-02-21T04:28:47;13.82;;;3.92;;
2644;SDS011;15377;48.540;9.268;2023-02-21T04:31:14;6.80;;;3.97;;
2644;SDS011;15377;48.540;9.268;2023-02-21T04:33:40;9.30;;;3.65;;
2644;SDS011;15377;48.540;9.268;2023-02-21T04:36:05;7.80;;;3.10;;
2644;SDS011;15377;48.540;9.268;2023-02-21T04:38:31;7.60;;;3.67;;
2644;SDS011;15377;48.540;9.268;2023-02-21T04:40:56;12.07;;;4.10;;
2644;SDS011;15377;48.540;9.268;2023-02-21T04:43:22;9.33;;;4.20;;
2644;SDS011;15377;48.540;9.268;2023-02-21T04:45:47;7.70;;;3.53;;
2644;SDS011;15377;48.540;9.268;2023-02-21T04:48:13;10.30;;;4.10;;
2644;SDS011;15377;48.540;9.268;2023-02-21T04:50:38;10.53;;;4.07;;
2644;SDS011;15377;48.540;9.268;2023-02-21T04:53:04;9.43;;;3.87;;
2644;SDS011;15377;48.540;9.268;2023-02-21T04:55:29;8.13;;;3.60;;
2644;SDS011;15377;48.540;9.268;2023-02-21T04:57:54;9.87;;;3.63;;
2644;SDS011;15377;48.540;9.268;2023-02-21T05:00:20;7.30;;;3.00;;
2644;SDS011;15377;48.540;9.268;2023-02-21T05:02:45;8.10;;;4.30;;
2644;SDS011;15377;48.540;9.268;2023-02-21T05:05:11;10.80;;;3.67;;
2644;SDS011;15377;48.540;9.268;2023-02-21T05:07:37;9.52;;;4.15;;
2644;SDS011;15377;48.540;9.268;2023-02-21T05:10:02;12.33;;;4.00;;
2644;SDS011;15377;48.540;9.268;2023-02-21T05:12:29;14.35;;;3.90;;
2644;SDS011;15377;48.540;9.268;2023-02-21T05:14:55;11.93;;;4.05;;
2644;SDS011;15377;48.540;9.268;2023-02-21T05:17:20;9.47;;;4.50;;
2644;SDS011;15377;48.540;9.268;2023-02-21T05:19:46;9.90;;;4.03;;
2644;SDS011;15377;48.540;9.268;2023-02-21T05:22:12;8.00;;;4.40;;
2644;SDS011;15377;48.540;9.268;2023-02-21T05:24:39;7.53;;;3.60;;
2644;SDS011;15377;48.540;9.268;2023-02-21T05:27:06;9.13;;;3.85;;
2644;SDS011;15377;48.540;9.268;2023-02-21T05:29:35;9.35;;;4.63;;
2644;SDS011;15377;48.540;9.268;2023-02-21T05:32:00;6.77;;;3.37;;
2644;SDS011;15377;48.540;9.268;2023-02-21T05:34:26;7.70;;;3.43;;
2644;SDS011;15377;48.540;9.268;2023-02-21T05:36:51;6.63;;;3.03;;
2644;SDS011;15377;48.540;9.268;2023-02-21T05:39:16;8.83;;;3.40;;
2644;SDS011;15377;48.540;9.268;2023-02-21T05:41:46;8.37;;;2.90;;
2644;SDS011;15377;48.540;9.268;2023-02-21T05:44:12;7.13;;;3.20;;
2644;SDS011;15377;48.540;9.268;2023-02-21T05:46:38;7.80;;;3.20;;
2644;SDS011;15377;48.540;9.268;2023-02-21T05:49:04;7.40;;;3.53;;
2644;SDS011;15377;48.540;9.268;2023-02-21T05:51:33;8.07;;;3.77;;
2644;SDS011;15377;48.540;9.268;2023-02-21T05:54:00;9.05;;;4.38;;
2644;SDS011;15377;48.540;9.268;2023-02-21T05:56:26;6.73;;;3.60;;
2644;SDS011;15377;48.540;9.268;2023-02-21T05:58:51;9.20;;;4.60;;
2644;SDS011;15377;48.540;9.268;2023-02-21T06:01:16;9.03;;;3.80;;
2644;SDS011;15377;48.540;9.268;2023-02-21T06:03:42;8.20;;;4.23;;
2644;SDS011;15377;48.540;9.268;2023-02-21T06:06:07;13.83;;;5.10;;
2644;SDS011;15377;48.540;9.268;2023-02-21T06:08:40;9.30;;;4.67;;
2644;SDS011;15377;48.540;9.268;2023-02-21T06:11:07;10.15;;;4.50;;
2644;SDS011;15377;48.540;9.268;2023-02-21T06:13:32;10.67;;;4.47;;
2644;SDS011;15377;48.540;9.268;2023-02-21T06:15:57;8.70;;;4.37;;
2644;SDS011;15377;48.540;9.268;2023-02-21T06:18:22;8.20;;;3.83;;
2644;SDS011;15377;48.540;9.268;2023-02-21T06:20:48;6.33;;;2.80;;
2644;SDS011;15377;48.540;9.268;2023-02-21T06:23:13;13.17;;;4.37;;
2644;SDS011;15377;48.540;9.268;2023-02-21T06:25:38;10.33;;;4.20;;
2644;SDS011;15377;48.540;9.268;2023-02-21T06:28:04;8.07;;;3.73;;
2644;SDS011;15377;48.540;9.268;2023-02-21T06:30:29;14.97;;;3.90;;
2644;SDS011;15377;48.540;9.268;2023-02-21T06:32:54;8.23;;;3.50;;
2644;SDS011;15377;48.540;9.268;2023-02-21T06:35:20;8.50;;;3.47;;
2644;SDS011;15377;48.540;9.268;2023-02-21T06:37:45;9.30;;;4.30;;
2644;SDS011;15377;48.540;9.268;2023-02-21T06:40:11;7.83;;;4.13;;
2644;SDS011;15377;48.540;9.268;2023-02-21T06:42:36;10.20;;;3.90;;
2644;SDS011;15377;48.540;9.268;2023-02-21T06:45:01;9.67;;;3.77;;
2644;SDS011;15377;48.540;9.268;2023-02-21T06:47:27;8.33;;;4.50;;
2644;SDS011;15377;48.540;9.268;2023-02-21T06:49:52;10.70;;;3.70;;
2644;SDS011;15377;48.540;9.268;2023-02-21T06:52:18;11.90;;;4.77;;
2644;SDS011;15377;48.540;9.268;2023-02-21T06:54:43;9.27;;;3.93;;
2644;SDS011;15377;48.540;9.268;2023-02-21T06:57:09;9.48;;;4.72;;
2644;SDS011;15377;48.540;9.268;2023-02-21T06:59:35;13.53;;;5.70;;
2644;SDS011;15377;48.540;9.268;2023-02-21T07:02:00;10.33;;;4.57;;
2644;SDS011;15377;48.540;9.268;2023-02-21T07:04:26;9.60;;;4.20;;
2644;SDS011;15377;48.540;9.268;2023-02-21T07:06:52;9.50;;;4.70;;
2644;SDS011;15377;48.540;9.268;2023-02-21T07:09:17;8.30;;;4.90;;
2644;SDS011;15377;48.540;9.268;2023-02-21T07:11:43;9.17;;;4.40;;
2644;SDS011;15377;48.540;9.268;2023-02-21T07:14:10;13.45;;;4.85;;
2644;SDS011;15377;48.540;9.268;2023-02-21T07:16:36;11.75;;;5.05;;
2644;SDS011;15377;48.540;9.268;2023-02-21T07:19:02;10.27;;;4.23;;
2644;SDS011;15377;48.540;9.268;2023-02-21T07:21:27;9.07;;;4.47;;
2644;SDS011;15377;48.540;9.268;2023-02-21T07:23:52;10.83;;;4.30;;
2644;SDS011;15377;48.540;9.268;2023-02-21T07:26:18;10.43;;;5.00;;
2644;SDS011;15377;48.540;9.268;2023-02-21T07:28:46;11.67;;;4.23;;
2644;SDS011;15377;48.540;9.268;2023-02-21T07:31:11;13.90;;;4.90;;
2644;SDS011;15377;48.540;9.268;2023-02-21T07:33:37;10.27;;;4.20;;
2644;SDS011;15377;48.540;9.268;2023-02-21T07:36:02;9.13;;;4.03;;
2644;SDS011;15377;48.540;9.268;2023-02-21T07:38:28;12.90;;;4.50;;
2644;SDS011;15377;48.540;9.268;2023-02-21T07:40:58;10.00;;;4.97;;
2644;SDS011;15377;48.540;9.268;2023-02-21T07:43:25;10.68;;;5.30;;
2644;SDS011;15377;48.540;9.268;2023-02-21T07:45:53;11.50;;;5.03;;
2644;SDS011;15377;48.540;9.268;2023-02-21T07:48:18;10.40;;;4.00;;
2644;SDS011;15377;48.540;9.268;2023-02-21T07:50:45;13.57;;;5.53;;
2644;SDS011;15377;48.540;9.268;2023-02-21T07:53:10;12.40;;;7.40;;
2644;SDS011;15377;48.540;9.268;2023-02-21T07:55:39;12.07;;;4.57;;
2644;SDS011;15377;48.540;9.268;2023-02-21T07:58:05;15.50;;;8.53;;
2644;SDS011;15377;48.540;9.268;2023-02-21T08:00:31;20.00;;;8.90;;
2644;SDS011;15377;48.540;9.268;2023-02-21T08:02:56;12.63;;;6.53;;
2644;SDS011;15377;48.540;9.268;2023-02-21T08:05:22;11.63;;;5.30;;
2644;SDS011;15377;48.540;9.268;2023-02-21T08:07:47;17.77;;;8.17;;
2644;SDS011;15377;48.540;9.268;2023-02-21T08:10:13;20.10;;;8.20;;
2644;SDS011;15377;48.540;9.268;2023-02-21T08:12:44;17.58;;;8.80;;
2644;SDS011;15377;48.540;9.268;2023-02-21T08:15:10;10.90;;;5.53;;
2644;SDS011;15377;48.540;9.268;2023-02-21T08:17:35;40.07;;;19.40;;
2644;SDS011;15377;48.540;9.268;2023-02-21T08:20:01;22.33;;;9.43;;
2644;SDS011;15377;48.540;9.268;2023-02-21T08:22:27;18.77;;;8.85;;
2644;SDS011;15377;48.540;9.268;2023-02-21T08:24:52;11.20;;;6.10;;
2644;SDS011;15377;48.540;9.268;2023-02-21T08:27:17;10.03;;;5.33;;
2644;SDS011;15377;48.540;9.268;2023-02-21T08:29:43;12.50;;;5.77;;
2644;SDS011;15377;48.540;9.268;2023-02-21T08:32:08;12.23;;;5.20;;
2644;SDS011;15377;48.540;9.268;2023-02-21T08:34:34;9.90;;;4.60;;
2644;SDS011;15377;48.540;9.268;2023-02-21T08:36:59;12.57;;;5.40;;
2644;SDS011;15377;48.540;9.268;2023-02-21T08:39:25;11.67;;;5.67;;
2644;SDS011;15377;48.540;9.268;2023-02-21T08:41:54;11.30;;;5.20;;
2644;SDS011;15377;48.540;9.268;2023-02-21T08:44:19;12.30;;;5.20;;
2644;SDS011;15377;48.540;9.268;2023-02-21T08:46:46;10.40;;;5.55;;
2644;SDS011;15377;48.540;9.268;2023-02-21T08:49:11;13.00;;;6.25;;
2644;SDS011;15377;48.540;9.268;2023-02-21T08:51:37;11.83;;;5.10;;
2644;SDS011;15377;48.540;9.268;2023-02-21T08:54:04;9.23;;;5.27;;
2644;SDS011;15377;48.540;9.268;2023-02-21T08:56:30;13.98;;;6.30;;
2644;SDS011;15377;48.540;9.268;2023-02-21T08:58:57;8.73;;;4.85;;
2644;SDS011;15377;48.540;9.268;2023-02-21T09:01:23;8.97;;;4.70;;
2644;SDS011;15377;48.540;9.268;2023-02-21T09:03:49;11.85;;;5.10;;
2644;SDS011;15377;48.540;9.268;2023-02-21T09:06:14;14.33;;;9.43;;
2644;SDS011;15377;48.540;9.268;2023-02-21T09:08:41;9.50;;;4.77;;
2644;SDS011;15377;48.540;9.268;2023-02-21T09:11:06;9.47;;;4.47;;
2644;SDS011;15377;48.540;9.268;2023-02-21T09:13:32;9.40;;;4.73;;
2644;SDS011;15377;48.540;9.268;2023-02-21T09:15:59;18.47;;;5.37;;
2644;SDS011;15377;48.540;9.268;2023-02-21T09:18:25;13.50;;;5.60;;
2644;SDS011;15377;48.540;9.268;2023-02-21T09:20:51;8.80;;;4.60;;
2644;SDS011;15377;48.540;9.268;2023-02-21T09:23:18;14.50;;;5.60;;
2644;SDS011;15377;48.540;9.268;2023-02-21T09:25:44;11.03;;;4.03;;
2644;SDS011;15377;48.540;9.268;2023-02-21T09:28:10;11.53;;;6.27;;
2644;SDS011;15377;48.540;9.268;2023-02-21T09:30:36;13.03;;;5.93;;
2644;SDS011;15377;48.540;9.268;2023-02-21T09:33:01;11.60;;;5.03;;
2644;SDS011;15377;48.540;9.268;2023-02-21T09:35:26;10.53;;;6.23;;
2644;SDS011;15377;48.540;9.268;2023-02-21T09:37:55;10.10;;;4.40;;
2644;SDS011;15377;48.540;9.268;2023-02-21T09:43:17;10.90;;;5.30;;
2644;SDS011;15377;48.540;9.268;2023-02-21T09:45:50;9.67;;;5.30;;
2644;SDS011;15377;48.540;9.268;2023-02-21T09:48:17;10.00;;;4.30;;
2644;SDS011;15377;48.540;9.268;2023-02-21T09:50:50;10.67;;;5.60;;
2644;SDS011;15377;48.540;9.268;2023-02-21T09:53:19;10.60;;;4.33;;
2644;SDS011;15377;48.540;9.268;2023-02-21T09:55:50;10.53;;;4.67;;
2644;SDS011;15377;48.540;9.268;2023-02-21T09:58:38;8.77;;;4.00;;
2644;SDS011;15377;48.540;9.268;2023-02-21T10:01:09;10.23;;;4.80;;
2644;SDS011;15377;48.540;9.268;2023-02-21T10:10:13;11.63;;;4.00;;
2644;SDS011;15377;48.540;9.268;2023-02-21T10:18:04;7.03;;;3.60;;
2644;SDS011;15377;48.540;9.268;2023-02-21T10:20:44;12.33;;;4.77;;
2644;SDS011;15377;48.540;9.268;2023-02-21T10:23:16;9.17;;;4.90;;
2644;SDS011;15377;48.540;9.268;2023-02-21T10:25:46;18.50;;;8.57;;
2644;SDS011;15377;48.540;9.268;2023-02-21T10:28:19;12.27;;;7.40;;
2644;SDS011;15377;48.540;9.268;2023-02-21T10:30:48;10.87;;;6.00;;
2644;SDS011;15377;48.540;9.268;2023-02-21T10:33:16;12.00;;;5.63;;
2644;SDS011;15377;48.540;9.268;2023-02-21T10:35:42;9.67;;;4.60;;
2644;SDS011;15377;48.540;9.268;2023-02-21T10:38:08;13.30;;;5.23;;
2644;SDS011;15377;48.540;9.268;2023-02-21T10:43:45;8.53;;;4.40;;
2644;SDS011;15377;48.540;9.268;2023-02-21T10:48:43;9.57;;;4.90;;
2644;SDS011;15377;48.540;9.268;2023-02-21T10:51:13;10.27;;;4.87;;
2644;SDS011;15377;48.540;9.268;2023-02-21T10:53:52;8.50;;;4.63;;
2644;SDS011;15377;48.540;9.268;2023-02-21T10:58:48;10.37;;;5.00;;
2644;SDS011;15377;48.540;9.268;2023-02-21T11:01:20;7.40;;;3.70;;
2644;SDS011;15377;48.540;9.268;2023-02-21T11:04:20;9.43;;;4.00;;
2644;SDS011;15377;48.540;9.268;2023-02-21T11:06:48;7.03;;;3.77;;
2644;SDS011;15377;48.540;9.268;2023-02-21T11:12:01;7.77;;;3.73;;
2644;SDS011;15377;48.540;9.268;2023-02-21T11:14:32;7.63;;;3.73;;
2644;SDS011;15377;48.540;9.268;2023-02-21T11:17:05;9.90;;;3.30;;
2644;SDS011;15377;48.540;9.268;2023-02-21T11:20:22;11.47;;;4.73;;
2644;SDS011;15377;48.540;9.268;2023-02-21T11:22:40;7.80;;;3.10;;
2644;SDS011;15377;48.540;9.268;2023-02-21T11:25:15;8.73;;;3.30;;
2644;SDS011;15377;48.540;9.268;2023-02-21T11:27:56;7.60;;;3.40;;
2644;SDS011;15377;48.540;9.268;2023-02-21T11:30:25;6.63;;;2.70;;
2644;SDS011;15377;48.540;9.268;2023-02-21T11:32:53;6.80;;;2.70;;
2644;SDS011;15377;48.540;9.268;2023-02-21T11:35:25;8.20;;;2.17;;
2644;SDS011;15377;48.540;9.268;2023-02-21T11:40:51;6.70;;;2.10;;
2644;SDS011;15377;48.540;9.268;2023-02-21T11:43:19;5.20;;;1.80;;
2644;SDS011;15377;48.540;9.268;2023-02-21T11:48:27;6.77;;;1.90;;
2644;SDS011;15377;48.540;9.268;2023-02-21T11:50:57;5.50;;;2.00;;
2644;SDS011;15377;48.540;9.268;2023-02-21T11:53:31;5.00;;;1.80;;
2644;SDS011;15377;48.540;9.268;2023-02-21T12:01:45;5.50;;;1.70;;
2644;SDS011;15377;48.540;9.268;2023-02-21T12:15:57;4.93;;;1.77;;
2644;SDS011;15377;48.540;9.268;2023-02-21T12:32:19;5.30;;;1.50;;
2644;SDS011;15377;48.540;9.268;2023-02-21T12:43:37;6.30;;;2.53;;
2644;SDS011;15377;48.540;9.268;2023-02-21T12:46:06;6.90;;;2.37;;
2644;SDS011;15377;48.540;9.268;2023-02-21T12:48:43;5.60;;;1.73;;
2644;SDS011;15377;48.540;9.268;2023-02-21T12:51:17;6.40;;;1.53;;
2644;SDS011;15377;48.540;9.268;2023-02-21T12:53:56;4.80;;;1.40;;
2644;SDS011;15377;48.540;9.268;2023-02-21T12:56:29;4.57;;;1.37;;
2644;SDS011;15377;48.540;9.268;2023-02-21T12:59:14;5.13;;;1.67;;
2644;SDS011;15377;48.540;9.268;2023-02-21T13:01:52;4.90;;;1.50;;
2644;SDS011;15377;48.540;9.268;2023-02-21T13:07:09;5.93;;;1.80;;
2644;SDS011;15377;48.540;9.268;2023-02-21T13:09:46;5.10;;;1.70;;
2644;SDS011;15377;48.540;9.268;2023-02-21T13:12:18;5.57;;;1.80;;
2644;SDS011;15377;48.540;9.268;2023-02-21T13:15:02;5.53;;;1.60;;
2644;SDS011;15377;48.540;9.268;2023-02-21T13:17:40;4.90;;;1.50;;
2644;SDS011;15377;48.540;9.268;2023-02-21T13:20:09;4.90;;;1.60;;
2644;SDS011;15377;48.540;9.268;2023-02-21T13:28:53;5.33;;;1.60;;
2644;SDS011;15377;48.540;9.268;2023-02-21T13:31:21;5.00;;;1.37;;
2644;SDS011;15377;48.540;9.268;2023-02-21T13:33:50;4.90;;;1.60;;
2644;SDS011;15377;48.540;9.268;2023-02-21T13:38:46;5.57;;;1.50;;
2644;SDS011;15377;48.540;9.268;2023-02-21T13:41:23;5.23;;;1.60;;
2644;SDS011;15377;48.540;9.268;2023-02-21T13:43:52;6.60;;;1.80;;
2644;SDS011;15377;48.540;9.268;2023-02-21T13:52:13;5.30;;;1.63;;
2644;SDS011;15377;48.540;9.268;2023-02-21T13:57:45;5.90;;;1.53;;
2644;SDS011;15377;48.540;9.268;2023-02-21T14:10:55;5.57;;;1.73;;
2644;SDS011;15377;48.540;9.268;2023-02-21T14:23:48;4.50;;;1.40;;
2644;SDS011;15377;48.540;9.268;2023-02-21T14:29:10;4.70;;;1.53;;
2644;SDS011;15377;48.540;9.268;2023-02-21T14:34:22;6.50;;;2.23;;
2644;SDS011;15377;48.540;9.268;2023-02-21T14:36:52;6.10;;;1.87;;
2644;SDS011;15377;48.540;9.268;2023-02-21T14:39:20;9.50;;;2.37;;
2644;SDS011;15377;48.540;9.268;2023-02-21T14:44:55;5.83;;;1.90;;
2644;SDS011;15377;48.540;9.268;2023-02-21T15:01:09;10.03;;;4.90;;
2644;SDS011;15377;48.540;9.268;2023-02-21T15:03:47;7.63;;;2.60;;
2644;SDS011;15377;48.540;9.268;2023-02-21T15:06:27;7.80;;;2.53;;
2644;SDS011;15377;48.540;9.268;2023-02-21T15:08:54;7.50;;;2.20;;
2644;SDS011;15377;48.540;9.268;2023-02-21T15:16:47;6.97;;;2.20;;
2644;SDS011;15377;48.540;9.268;2023-02-21T15:22:06;6.67;;;2.43;;
2644;SDS011;15377;48.540;9.268;2023-02-21T15:27:35;6.23;;;2.37;;
2644;SDS011;15377;48.540;9.268;2023-02-21T15:32:32;6.47;;;2.00;;
2644;SDS011;15377;48.540;9.268;2023-02-21T15:35:12;6.47;;;2.30;;
2644;SDS011;15377;48.540;9.268;2023-02-21T15:37:45;7.20;;;2.50;;
2644;SDS011;15377;48.540;9.268;2023-02-21T15:40:15;9.47;;;2.37;;
2644;SDS011;15377;48.540;9.268;2023-02-21T15:42:45;7.30;;;2.00;;
2644;SDS011;15377;48.540;9.268;2023-02-21T15:45:16;6.60;;;2.00;;
2644;SDS011;15377;48.540;9.268;2023-02-21T15:47:48;6.80;;;2.10;;
2644;SDS011;15377;48.540;9.268;2023-02-21T15:53:09;7.73;;;2.07;;
2644;SDS011;15377;48.540;9.268;2023-02-21T15:55:37;6.80;;;2.07;;
2644;SDS011;15377;48.540;9.268;2023-02-21T16:06:12;5.90;;;2.23;;
2644;SDS011;15377;48.540;9.268;2023-02-21T16:08:38;7.00;;;2.60;;
2644;SDS011;15377;48.540;9.268;2023-02-21T16:11:14;6.27;;;2.80;;
2644;SDS011;15377;48.540;9.268;2023-02-21T16:13:40;6.90;;;2.93;;
2644;SDS011;15377;48.540;9.268;2023-02-21T16:16:05;8.80;;;2.40;;
2644;SDS011;15377;48.540;9.268;2023-02-21T16:18:32;6.93;;;2.27;;
2644;SDS011;15377;48.540;9.268;2023-02-21T16:21:02;6.73;;;2.90;;
2644;SDS011;15377;48.540;9.268;2023-02-21T16:23:30;9.57;;;2.83;;
2644;SDS011;15377;48.540;9.268;2023-02-21T16:25:58;9.50;;;2.70;;
2644;SDS011;15377;48.540;9.268;2023-02-21T16:28:34;6.73;;;2.80;;
2644;SDS011;15377;48.540;9.268;2023-02-21T16:31:04;7.20;;;3.13;;
2644;SDS011;15377;48.540;9.268;2023-02-21T16:33:32;6.37;;;2.73;;
2644;SDS011;15377;48.540;9.268;2023-02-21T16:35:59;6.87;;;2.80;;
2644;SDS011;15377;48.540;9.268;2023-02-21T16:38:28;7.13;;;3.00;;
2644;SDS011;15377;48.540;9.268;2023-02-21T16:40:53;6.60;;;2.63;;
2644;SDS011;15377;48.540;9.268;2023-02-21T16:43:20;6.30;;;2.77;;
2644;SDS011;15377;48.540;9.268;2023-02-21T16:45:47;6.57;;;2.47;;
2644;SDS011;15377;48.540;9.268;2023-02-21T16:48:16;6.70;;;2.70;;
2644;SDS011;15377;48.540;9.268;2023-02-21T16:50:46;6.97;;;2.93;;
2644;SDS011;15377;48.540;9.268;2023-02-21T16:53:13;6.60;;;2.80;;
2644;SDS011;15377;48.540;9.268;2023-02-21T16:55:39;6.03;;;2.60;;
2644;SDS011;15377;48.540;9.268;2023-02-21T16:58:19;6.87;;;2.83;;
2644;SDS011;15377;48.540;9.268;2023-02-21T17:00:57;8.57;;;3.20;;
2644;SDS011;15377;48.540;9.268;2023-02-21T17:03:25;7.70;;;3.30;;
2644;SDS011;15377;48.540;9.268;2023-02-21T17:05:52;7.20;;;3.00;;
2644;SDS011;15377;48.540;9.268;2023-02-21T17:08:19;6.13;;;2.83;;
2644;SDS011;15377;48.540;9.268;2023-02-21T17:10:45;7.83;;;3.63;;
2644;SDS011;15377;48.540;9.268;2023-02-21T17:13:10;7.70;;;3.53;;
2644;SDS011;15377;48.540;9.268;2023-02-21T17:15:36;9.53;;;4.70;;
2644;SDS011;15377;48.540;9.268;2023-02-21T17:18:01;11.90;;;6.67;;
2644;SDS011;15377;48.540;9.268;2023-02-21T17:20:36;11.16;;;7.06;;
2644;SDS011;15377;48.540;9.268;2023-02-21T17:23:02;15.10;;;7.60;;
2644;SDS011;15377;48.540;9.268;2023-02-21T17:25:27;13.77;;;6.95;;
2644;SDS011;15377;48.540;9.268;2023-02-21T17:27:54;13.20;;;6.17;;
2644;SDS011;15377;48.540;9.268;2023-02-21T17:30:20;9.23;;;4.40;;
2644;SDS011;15377;48.540;9.268;2023-02-21T17:32:48;10.33;;;4.83;;
2644;SDS011;15377;48.540;9.268;2023-02-21T17:35:15;7.90;;;3.77;;
2644;SDS011;15377;48.540;9.268;2023-02-21T17:37:43;13.87;;;4.83;;
2644;SDS011;15377;48.540;9.268;2023-02-21T17:40:11;9.57;;;4.23;;
2644;SDS011;15377;48.540;9.268;2023-02-21T17:42:37;8.90;;;4.53;;
2644;SDS011;15377;48.540;9.268;2023-02-21T17:45:03;12.20;;;5.80;;
2644;SDS011;15377;48.540;9.268;2023-02-21T17:47:29;17.83;;;9.53;;
2644;SDS011;15377;48.540;9.268;2023-02-21T17:49:55;13.40;;;4.30;;
2644;SDS011;15377;48.540;9.268;2023-02-21T17:52:22;8.03;;;3.47;;
2644;SDS011;15377;48.540;9.268;2023-02-21T17:54:48;7.20;;;3.40;;
2644;SDS011;15377;48.540;9.268;2023-02-21T17:57:13;6.90;;;3.37;;
2644;SDS011;15377;48.540;9.268;2023-02-21T17:59:38;12.83;;;5.80;;
2644;SDS011;15377;48.540;9.268;2023-02-21T18:02:04;6.83;;;3.47;;
2644;SDS011;15377;48.540;9.268;2023-02-21T18:04:32;11.50;;;3.80;;
2644;SDS011;15377;48.540;9.268;2023-02-21T18:06:57;7.80;;;3.70;;
2644;SDS011;15377;48.540;9.268;2023-02-21T18:09:23;10.10;;;3.20;;
2644;SDS011;15377;48.540;9.268;2023-02-21T18:11:49;8.97;;;3.90;;
2644;SDS011;15377;48.540;9.268;2023-02-21T18:14:19;9.13;;;4.23;;
2644;SDS011;15377;48.540;9.268;2023-02-21T18:16:45;10.83;;;4.00;;
2644;SDS011;15377;48.540;9.268;2023-02-21T18:19:11;11.70;;;4.10;;
2644;SDS011;15377;48.540;9.268;2023-02-21T18:21:36;9.80;;;4.53;;
2644;SDS011;15377;48.540;9.268;2023-02-21T18:24:07;16.00;;;6.10;;
2644;SDS011;15377;48.540;9.268;2023-02-21T18:26:34;9.07;;;3.87;;
2644;SDS011;15377;48.540;9.268;2023-02-21T18:29:00;7.83;;;3.10;;
2644;SDS011;15377;48.540;9.268;2023-02-21T18:31:26;8.77;;;3.80;;
2644;SDS011;15377;48.540;9.268;2023-02-21T18:33:51;14.17;;;7.33;;
2644;SDS011;15377;48.540;9.268;2023-02-21T18:36:16;10.23;;;5.03;;